• Join FlightAware (Why Join?)
  • Login
  • US Flag 
07:07PM EDT


 

Airport Tracker/Info


-or-


 

Live Flight TrackerFlight Track Log ✈ SWA558 ✈ 18-Apr-2013 ✈ KRSW - KMDW

Flight Track Log - Related Links

Times and Time Zones

All times are in EDT time to prevent confusion due to time zone crossing. See the SWA558 flight status page for this flight to view local times or setup timezone preferences in your user account.

Time Position Orientation Groundspeed Altitude Reporting Facility
EDT Latitude Longitude Course Direction KTS MPH feet Rate Location/Type
02:05PM 26.5197 -81.8967 348° North 238 274 4,900  Level Miami Center
02:06PM 26.6006 -81.9164 348° North 228 262 8,400 2,640 Climbing Miami Center
02:07PM 26.6842 -81.9131 North 253 291 10,800 2,040 Climbing Miami Center
02:08PM 26.8000 -81.8831 13° North 315 362 13,000 2,220 Climbing Miami Center
02:09PM 26.8961 -81.8197 30° Northeast 349 402 15,300 1,980 Climbing Miami Center
02:10PM 26.9983 -81.7589 28° Northeast 381 438 17,000 840 Climbing Miami Center
02:11PM 27.1064 -81.7706 355° North 388 447 17,000 780 Level Miami Center
02:12PM 27.2136 -81.8075 343° North 383 441 18,600 1,860 Climbing Miami Center
02:13PM 27.3253 -81.8381 355° North 402 463 20,800 2,340 Climbing Miami Center
02:14PM 27.4536 -81.8742 346° North 417 480 23,300 1,920 Climbing Miami Center
02:15PM 27.5736 -81.9050 347° North 434 499 24,700 1,860 Climbing Miami Center
02:17PM 27.8192 -81.9681 347° North 474 545 29,100 2,160 Climbing Jacksonville Center
02:18PM 27.9319 -82.0000 346° North 447 514 31,400 2,100 Climbing Jacksonville Center
02:19PM 28.0303 -82.0533 334° Northwest 396 456 33,300 1,380 Climbing Jacksonville Center
02:20PM 28.1186 -82.1325 322° Northwest 396 456 34,300 1,200 Climbing Jacksonville Center
02:21PM 28.2025 -82.2072 322° Northwest 396 456 35,700 840 Climbing Jacksonville Center
02:22PM 28.2903 -82.2867 321° Northwest 396 456 36,000 120 Climbing Jacksonville Center
02:23PM 28.3764 -82.3664 321° Northwest 402 463 36,000  Level Jacksonville Center
02:24PM 28.4642 -82.4439 322° Northwest 402 463 36,000  Level Jacksonville Center
02:25PM 28.5542 -82.5239 322° Northwest 402 463 36,000  Level Jacksonville Center
02:26PM 28.6422 -82.6039 321° Northwest 402 463 36,000  Level Jacksonville Center
02:27PM 28.7258 -82.6794 322° Northwest 397 457 36,000  Level Jacksonville Center
02:28PM 28.8136 -82.7600 321° Northwest 397 457 36,000  Level Jacksonville Center
02:29PM 28.9011 -82.8381 322° Northwest 402 463 36,000  Level Jacksonville Center
02:30PM 28.9889 -82.9211 320° Northwest 402 463 36,000  Level Jacksonville Center
02:31PM 29.0786 -82.9994 323° Northwest 402 463 36,000  Level Jacksonville Center
02:32PM 29.1642 -83.0781 321° Northwest 402 463 36,000  Level Jacksonville Center
02:33PM 29.2536 -83.1617 321° Northwest 402 463 36,000 -300 Level Jacksonville Center
02:34PM 29.3600 -83.1856 349° North 387 445 35,500 -720 Descending Jacksonville Center
02:35PM 29.4731 -83.1239 25° Northeast 380 437 34,600 -780 Descending Jacksonville Center
02:36PM 29.5878 -83.0669 23° Northeast 415 478 34,000 -300 Descending Jacksonville Center
02:37PM 29.7028 -83.0003 27° Northeast 436 502 34,000  Level Jacksonville Center
02:38PM 29.8133 -82.9381 26° Northeast 441 507 34,000 -240 Level Jacksonville Center
02:39PM 29.9261 -82.8758 26° Northeast 441 507 33,600 -840 Descending Jacksonville Center
02:40PM 30.0431 -82.8086 26° Northeast 441 507 32,400 -1,140 Descending Jacksonville Center
02:41PM 30.1517 -82.7483 26° Northeast 436 502 31,400 -1,080 Descending Jacksonville Center
02:42PM 30.2539 -82.6906 26° Northeast 422 486 30,300 -960 Descending Jacksonville Center
02:43PM 30.3311 -82.6472 26° Northeast 404 465 29,500 -960 Descending Jacksonville Center
02:44PM 30.4375 -82.5914 24° Northeast 384 442 28,400 -1,320 Descending Jacksonville Center
02:45PM 30.5394 -82.5406 23° Northeast 384 442 27,000 -720 Descending Jacksonville Center
02:46PM 30.6583 -82.4892 20° North 413 475 27,000 -240 Level Jacksonville Center
02:47PM 30.7772 -82.4356 21° North 440 506 26,600 -720 Descending Jacksonville Center
02:48PM 30.9022 -82.3817 20° North 461 531 25,600 -840 Descending Jacksonville Center
02:49PM 31.0272 -82.3278 20° North 466 536 25,000 -360 Descending Jacksonville Center
02:50PM 31.1483 -82.2758 20° North 466 536 25,000  Level Jacksonville Center
02:51PM 31.2711 -82.2242 20° North 466 536 25,000  Level Jacksonville Center
02:52PM 31.3919 -82.1697 21° North 466 536 25,000  Level Jacksonville Center
02:53PM 31.5147 -82.1153 21° North 466 536 25,000  Level Jacksonville Center
02:54PM 31.6503 -82.0531 21° North 466 536 25,000  Level Jacksonville Center
02:55PM 31.7625 -82.0056 20° North 466 536 25,000  Level Jacksonville Center
02:56PM 31.8958 -81.9456 21° North 471 542 25,000  Level Jacksonville Center
02:57PM 32.0061 -81.8978 20° North 466 536 25,000  Level Jacksonville Center
02:58PM 32.1433 -81.8350 21° North 466 536 25,000  Level Jacksonville Center
02:59PM 32.2661 -81.7844 19° North 466 536 25,000  Level Jacksonville Center
03:00PM 32.3783 -81.7339 21° North 466 536 25,000  Level Jacksonville Center
03:01PM 32.5133 -81.6706 22° Northeast 466 536 25,000  Level Jacksonville Center
03:02PM 32.6361 -81.6172 20° North 472 543 25,000 -540 Level Jacksonville Center
03:03PM 32.7483 -81.5636 22° Northeast 472 543 24,000 -720 Descending Jacksonville Center
03:04PM 32.8708 -81.5075 21° North 467 537 23,600 -540 Descending Jacksonville Center
03:05PM 32.9933 -81.4536 20° North 467 537 23,000 -300 Descending Jacksonville Center
03:06PM 33.1139 -81.3972 21° North 467 537 23,000  Level Jacksonville Center
03:07PM 33.2364 -81.3428 20° North 467 537 23,000  Level Jacksonville Center
03:08PM 33.3567 -81.2886 21° North 467 537 23,000  Level Jacksonville Center
03:09PM 33.4792 -81.2317 21° North 467 537 23,000  Level Jacksonville Center
03:10PM 33.6014 -81.1744 21° North 467 537 23,000  Level Jacksonville Center
03:11PM 33.7236 -81.1172 21° North 467 537 23,000  Level Jacksonville Center
03:12PM 33.8503 -81.0669 18° North 467 537 23,000  Level Jacksonville Center
03:13PM 33.9739 -81.0969 349° North 436 502 23,000  Level Jacksonville Center
03:14PM 34.0956 -81.1497 340° North 447 514 23,000  Level Jacksonville Center
03:15PM 34.2172 -81.2025 340° North 453 521 23,000  Level Jacksonville Center
03:17PM 34.5261 -81.3308 341° North 478 550 23,000  Level Atlanta Center
03:18PM 34.6608 -81.3847 342° North 468 539 23,000  Level Atlanta Center
03:19PM 34.7850 -81.4364 341° North 468 539 23,000  Level Atlanta Center
03:20PM 34.9092 -81.4856 342° North 468 539 23,000  Level Atlanta Center
03:21PM 35.0292 -81.5378 340° North 468 539 23,000  Level Atlanta Center
03:22PM 35.1533 -81.5900 341° North 468 539 23,000  Level Atlanta Center
03:23PM 35.2756 -81.6422 341° North 463 533 23,000  Level Atlanta Center
03:24PM 35.3869 -81.6900 341° North 463 533 23,000  Level Atlanta Center
03:25PM 35.5111 -81.7400 342° North 469 540 23,000  Level Atlanta Center
03:26PM 35.6372 -81.7928 341° North 469 540 23,000  Level Atlanta Center
03:27PM 35.7592 -81.8431 342° North 464 534 23,000  Level Atlanta Center
03:28PM 35.8978 -81.9008 341° North 474 545 23,000  Level Atlanta Center
03:29PM 36.0217 -81.9514 342° North 468 539 23,000  Level Atlanta Center
03:30PM 36.1456 -82.0022 342° North 468 539 23,000  Level Atlanta Center
03:31PM 36.2550 -82.0511 340° North 467 537 23,000  Level Atlanta Center
03:32PM 36.3767 -82.1047 340° North 462 532 23,000  Level Atlanta Center
03:33PM 36.5067 -82.1378 348° North 468 539 23,000  Level Atlanta Center
03:34PM 36.6381 -82.1528 355° North 473 544 23,000  Level Atlanta Center
03:37PM 36.9744 -82.1931 355° North 481 554 23,000  Level Indianapolis Center
03:38PM 37.1058 -82.2089 355° North 477 549 23,000  Level Indianapolis Center
03:39PM 37.2619 -82.2281 354° North 482 555 23,000  Level Indianapolis Center
03:40PM 37.3944 -82.2442 354° North 480 552 23,000  Level Indianapolis Center
03:41PM 37.5269 -82.2597 355° North 478 550 23,000  Level Indianapolis Center
03:42PM 37.6586 -82.2758 354° North 476 548 23,000  Level Indianapolis Center
03:43PM 37.7903 -82.2928 354° North 476 548 23,000  Level Indianapolis Center
03:44PM 37.9214 -82.3072 355° North 473 544 23,000  Level Indianapolis Center
03:45PM 38.0756 -82.3256 355° North 476 548 23,000  Level Indianapolis Center
03:46PM 38.2061 -82.3425 354° North 482 555 23,000  Level Indianapolis Center
03:47PM 38.3386 -82.3586 355° North 478 550 23,000  Level Indianapolis Center
03:48PM 38.4733 -82.3744 355° North 481 554 23,000  Level Indianapolis Center
03:49PM 38.6089 -82.3925 354° North 480 552 23,000  Level Indianapolis Center
03:50PM 38.7436 -82.4094 354° North 486 559 23,000  Level Indianapolis Center
03:51PM 38.8797 -82.4264 354° North 488 562 23,000  Level Indianapolis Center
03:52PM 39.0153 -82.4442 354° North 488 562 23,000  Level Indianapolis Center
03:53PM 39.1514 -82.4608 355° North 490 564 23,000  Level Indianapolis Center
03:54PM 39.3064 -82.4808 354° North 488 562 23,000  Level Indianapolis Center
03:55PM 39.4419 -82.4964 355° North 486 559 23,000  Level Indianapolis Center
03:56PM 39.5769 -82.5153 354° North 486 559 23,000  Level Indianapolis Center
03:57PM 39.7131 -82.5314 355° North 489 563 23,000  Level Indianapolis Center
03:58PM 39.8489 -82.5500 354° North 488 562 23,000  Level Indianapolis Center
04:00PM 39.9753 -82.5972 344° North 481 554 23,000  Level Indianapolis Center
04:01PM 40.0506 -82.7672 300° West 462 532 23,000  Level Indianapolis Center
04:02PM 40.1100 -82.9142 298° West 458 527 23,000  Level Indianapolis Center
04:03PM 40.1678 -83.0614 297° West 455 524 23,000  Level Indianapolis Center
04:04PM 40.2264 -83.2083 298° West 455 524 23,000  Level Indianapolis Center
04:05PM 40.2836 -83.3567 297° West 456 525 23,000  Level Indianapolis Center
04:06PM 40.3417 -83.5042 297° West 455 524 23,000  Level Indianapolis Center
04:07PM 40.3997 -83.6533 297° West 456 525 23,000  Level Indianapolis Center
04:08PM 40.4672 -83.8283 297° West 458 527 23,000  Level Indianapolis Center
04:09PM 40.5242 -83.9769 297° West 453 521 23,000 -540 Level Indianapolis Center
04:10PM 40.5808 -84.1239 297° West 448 516 22,000 -540 Descending Indianapolis Center
04:11PM 40.6358 -84.2681 297° West 440 506 22,000  Level Indianapolis Center
04:12PM 40.6897 -84.4128 296° West 438 504 22,000  Level Indianapolis Center
04:13PM 40.7450 -84.5572 297° West 439 505 22,000  Level Indianapolis Center
04:14PM 40.8089 -84.6992 301° West 446 513 22,000  Level Indianapolis Center
04:15PM 40.9003 -84.8189 315° West 457 526 22,000  Level Indianapolis Center
04:16PM 40.9978 -84.9483 315° West 416 479 22,000  Level Indianapolis Center
04:17PM 41.0958 -85.0158 333° Northwest 435 501 22,000  Level Chicago Center
04:18PM 41.2428 -85.0433 352° North 448 516 22,000 -540 Level Chicago Center
04:19PM 41.3553 -85.0925 342° North 440 506 20,900 -1,500 Descending Chicago Center
04:20PM 41.3869 -85.2231 288° West 370 426 19,000 -1,860 Descending Chicago Center
04:21PM 41.4106 -85.3542 284° West 362 417 17,100 -1,440 Descending Chicago Center
04:22PM 41.4331 -85.4794 284° West 349 402 16,100 -540 Descending Chicago Center
04:23PM 41.4539 -85.6042 283° West 342 394 16,100 -960 Level Chicago Center
04:24PM 41.4669 -85.7339 278° West 348 400 14,200 -1,920 Descending Chicago Center
04:25PM 41.4778 -85.8617 276° West 347 399 12,200 -1,620 Descending Chicago Center
04:26PM 41.4900 -86.0119 276° West 341 392 10,900 -1,200 Descending Chicago Center
04:27PM 41.5008 -86.1317 277° West 330 380 9,800 -1,260 Descending Chicago Center
04:28PM 41.5103 -86.2350 277° West 287 330 8,300 -1,500 Descending Chicago Center
04:29PM 41.5631 -86.3067 315° West 276 318 6,700 -1,080 Descending Chicago Center
04:31PM 41.5950 -86.3767 301° West 249 287 6,100 -300 Descending Chicago Center
04:32PM 41.5875 -86.4589 263° West 228 262 6,100  Level Chicago Center
04:33PM 41.5794 -86.5417 263° West 227 261 6,100  Level Chicago Center
04:34PM 41.5686 -86.6458 262° West 236 272 6,100  Level Chicago Center
04:35PM 41.5594 -86.7333 262° West 235 270 6,100  Level Chicago Center
04:36PM 41.5508 -86.8203 262° West 237 273 6,100  Level Chicago Center
04:37PM 41.5425 -86.9086 263° West 243 280 6,100  Level Chicago Center
04:38PM 41.5328 -86.9994 262° West 248 285 6,100 -120 Level Chicago Center
04:39PM 41.5236 -87.0864 262° West 242 278 5,900 -180 Descending Chicago Center
04:39PM 41.5167 -87.1333 259° West 246 283 5,900  Level Chicago TRACON
04:40PM 41.5167 -87.2333 270° West 242 278 5,900  Level Chicago TRACON
04:41PM 41.5167 -87.3167 270° West 235 270 5,900  Level Chicago TRACON
04:42PM 41.5333 -87.4000 285° West 235 270 5,900  Level Chicago TRACON
04:43PM 41.5347 -87.4528 272° West 237 273 5,900  Level Chicago Center
04:44PM 41.5486 -87.5400 282° West 239 275 5,900 -540 Level Chicago Center
04:45PM 41.5625 -87.6281 282° West 242 278 4,900 -1,020 Descending Chicago Center
04:46PM 41.5828 -87.7294 285° West 240 276 3,900 -660 Descending Chicago Center
04:47PM 41.6233 -87.8086 304° West 253 291 3,600 -960 Descending Chicago Center
04:47PM 41.6333 -87.8333 298° West 269 310 2,700 -1,200 Descending Chicago TRACON
04:48PM 41.6661 -87.8917 307° West 263 303 2,400 -180 Descending Chicago Center
04:49PM 41.7256 -87.9539 322° Northwest 271 312 2,400  Level Chicago Center
04:50PM 41.7819 -87.9933 332° Northwest 258 297 2,400 -120 Level Chicago Center
04:51PM 41.8506 -87.9464 27° Northeast 236 272 2,200 -120 Descending Chicago Center
04:52PM 41.8717 -87.8889 64° Northeast 213 245 2,200  Level Chicago Center
04:53PM 41.8489 -87.8394 122° Southeast 180 207 2,200 -300 Level Chicago Center
04:54PM 41.8242 -87.8072 136° Southeast 150 173 1,600 -540 Descending Chicago Center
04:55PM 41.7997 -87.7733 134° Southeast 134 154 1,100 -540 Descending Chicago Center